Thunder radar more information blitzortung!


Radar de pluja more information rain snow radar


Visita la nostra xarxa de llocs de meteo:

Template documentation
and downloads

And another site



No particular awareness of the weather is required.    There are no Weather-warnings

Pagina Historial Weather Underground text

Diari Resum Octubre 7, 2017 Unitats:  Mètric    Imperial   Tant
« Previous Dia
SegĂźent Dia »
Diari Setmana Mensual Anual Personalitzada
  Maxima: Minima: Media:
Temperatura: -17.8 °C -9.6 °C -7.8 °C
Punt de rosada: -17.8 °C -13.2 °C -12 °C
Humitat: Humidity % 44 % 63 %
Wind Speed: 0 km/h 0 km/h 8.5 km/h
RĂ fegues de vent: 0 km/h - -
Vent:- - SSE
Pression baro: 0 hPa 34496.6 hPa -
Precipitacions: 0 mm    
Historical Graphs
 
 
Dades de taula per Octubre 7, 2017
Temps Temperatura Punt de rosada Pression baro Vent Wind Speed RĂ fegues de vent Humitat Rainfall Rate (Hourly)
-17.8 °C -17.8 °C 0 hPa Calm     Humidity % 0 mm
00:03 -7.5 °C -9.2 °C 34533.8 hPa WNW 6 km/h 6 km/h 82 % 0 mm
00:08 -7.5 °C -9.2 °C 34533.8 hPa SW 3.1 km/h   82 % 0 mm
00:13 -7.6 °C -9.3 °C 34533.8 hPa WNW 3.1 km/h 3.1 km/h 82 % 0 mm
00:18 -7.6 °C -9.3 °C 34533.8 hPa Calm     82 % 0 mm
00:23 -7.7 °C -9.4 °C 34533.8 hPa Calm     82 % 0 mm
00:28 -7.8 °C -9.5 °C 34533.8 hPa Calm     82 % 0 mm
00:33 -7.8 °C -9.6 °C 34533.8 hPa SW 6 km/h 6 km/h 82 % 0 mm
00:39 -7.9 °C -9.7 °C 34533.8 hPa WSW 6.3 km/h 6.3 km/h 82 % 0 mm
00:44 -8.1 °C -9.8 °C 34533.8 hPa WSW 6 km/h 6 km/h 82 % 0 mm
00:49 -8 °C -9.7 °C 34533.8 hPa WSW 6 km/h 6 km/h 82 % 0 mm
00:54 -7.9 °C -9.6 °C 34533.8 hPa ENE 5.1 km/h   83 % 0 mm
00:59 -8.1 °C -9.6 °C 34533.8 hPa ENE 3.1 km/h 3.7 km/h 84 % 0 mm
01:04 -8.1 °C -9.6 °C 34533.8 hPa SSW 5.6 km/h 5.6 km/h 84 % 0 mm
01:09 -8.2 °C -9.8 °C 34533.8 hPa South 3.1 km/h 3.1 km/h 83 % 0 mm
01:24 -8.3 °C -9.9 °C 34533.8 hPa SW 9 km/h 9 km/h 83 % 0 mm
01:29 -8.4 °C -9.9 °C 34533.8 hPa WSW 6 km/h 6 km/h 84 % 0 mm
01:34 -8.4 °C -9.9 °C 34533.8 hPa SW 6 km/h 6 km/h 84 % 0 mm
01:39 -8.3 °C -9.8 °C 34533.8 hPa WSW 6 km/h 6 km/h 84 % 0 mm
01:44 -8.3 °C -9.8 °C 34533.8 hPa Calm     84 % 0 mm
01:49 -8.3 °C -9.8 °C 34533.8 hPa NNE 3.1 km/h 3.1 km/h 84 % 0 mm
01:54 -8.3 °C -9.8 °C 34533.8 hPa Calm     85 % 0 mm
01:59 -8.4 °C -9.8 °C 34533.8 hPa Calm     85 % 0 mm
02:04 -8.4 °C -9.8 °C 34533.8 hPa Calm     85 % 0 mm
02:09 -8.4 °C -9.8 °C 34533.8 hPa Calm     85 % 0 mm
02:14 -8.4 °C -9.8 °C 34496.6 hPa ENE 3.1 km/h 3.1 km/h 85 % 0 mm
02:19 -8.4 °C -9.8 °C 34496.6 hPa Calm     85 % 0 mm
02:24 -8.4 °C -9.8 °C 34496.6 hPa NE 3.1 km/h 3.1 km/h 86 % 0 mm
02:29 -8.4 °C -9.8 °C 34533.8 hPa Calm     86 % 0 mm
02:34 -8.4 °C -9.8 °C 34533.8 hPa Calm     86 % 0 mm
02:39 -8.5 °C -9.8 °C 34533.8 hPa WSW 3.1 km/h   86 % 0 mm
02:44 -8.6 °C -9.9 °C 34533.8 hPa WSW 3.1 km/h   85 % 0 mm
02:46 -8.5 °C -9.9 °C 34533.8 hPa Calm     85 % 0 mm
02:51 -8.5 °C -9.9 °C 34533.8 hPa Calm     85 % 0 mm
02:56 -8.6 °C -10.1 °C 34533.8 hPa SW 6 km/h 6 km/h 85 % 0 mm
03:01 -8.7 °C -10.2 °C 34533.8 hPa WSW 6 km/h 6.3 km/h 84 % 0 mm
03:06 -8.7 °C -10.2 °C 34533.8 hPa WSW 6 km/h 6 km/h 84 % 0 mm
03:11 -8.7 °C -10.2 °C 34533.8 hPa West 3.1 km/h   84 % 0 mm
03:16 -8.7 °C -10.1 °C 34496.6 hPa Calm     85 % 0 mm
03:21 -8.7 °C -10.2 °C 34496.6 hPa SW 6 km/h 6 km/h 84 % 0 mm
03:26 -8.9 °C -10.4 °C 34496.6 hPa SW 9 km/h 9 km/h 84 % 0 mm
03:31 -8.9 °C -10.6 °C 34533.8 hPa SW 11.9 km/h   83 % 0 mm
03:36 -8.9 °C -10.6 °C 34533.8 hPa WNW 3.1 km/h 3.7 km/h 83 % 0 mm
03:41 -8.9 °C -10.7 °C 34533.8 hPa West 8.5 km/h 8.5 km/h 82 % 0 mm
03:46 -8.8 °C -10.7 °C 34533.8 hPa WSW 9 km/h 9 km/h 80 % 0 mm
03:51 -8.8 °C -10.8 °C 34533.8 hPa SW 6 km/h 6 km/h 79 % 0 mm
03:56 -8.8 °C -10.9 °C 34533.8 hPa SW 3.1 km/h 3.1 km/h 78 % 0 mm
04:01 -8.8 °C -10.9 °C 34533.8 hPa WSW 5.1 km/h 5.1 km/h 78 % 0 mm
04:06 -8.8 °C -10.9 °C 34533.8 hPa WSW 6.3 km/h 6.3 km/h 78 % 0 mm
04:11 -8.8 °C -10.9 °C 34533.8 hPa WSW 6 km/h 6.3 km/h 78 % 0 mm
04:16 -8.9 °C -11.2 °C 34533.8 hPa SW 6 km/h 6 km/h 77 % 0 mm
04:21 -8.8 °C -11.2 °C 34533.8 hPa Calm     76 % 0 mm
04:26 -8.8 °C -11.2 °C 34533.8 hPa WSW 6 km/h 6 km/h 76 % 0 mm
04:31 -8.8 °C -11.2 °C 34533.8 hPa SSE 3.1 km/h 3.1 km/h 75 % 0 mm
04:36 -8.7 °C -11.3 °C 34533.8 hPa NNE 6.3 km/h 6.3 km/h 74 % 0 mm
04:41 -8.6 °C -11.2 °C 34533.8 hPa ENE 9 km/h 9 km/h 74 % 0 mm
04:46 -8.6 °C -11.2 °C 34533.8 hPa NNW 6 km/h 6 km/h 74 % 0 mm
04:51 -8.6 °C -11.2 °C 34533.8 hPa NNE 6 km/h 6 km/h 74 % 0 mm
04:56 -8.7 °C -11.2 °C 34533.8 hPa West 6 km/h 6 km/h 74 % 0 mm
05:01 -8.7 °C -11.4 °C 34567.7 hPa WNW 3.1 km/h   73 % 0 mm
05:06 -8.8 °C -11.6 °C 34567.7 hPa NNE 6 km/h 6 km/h 72 % 0 mm
05:12 -8.8 °C -11.6 °C 34567.7 hPa NE 9 km/h 9 km/h 72 % 0 mm
05:17 -8.8 °C -11.8 °C 34567.7 hPa NNW 6 km/h 6 km/h 71 % 0 mm
05:21 -8.9 °C -11.8 °C 34567.7 hPa NE 3.1 km/h 3.1 km/h 71 % 0 mm
05:26 -8.9 °C -11.8 °C 34567.7 hPa NW 3.7 km/h 3.7 km/h 71 % 0 mm
05:31 -9 °C -11.9 °C 34567.7 hPa WNW 8 km/h 8 km/h 71 % 0 mm
05:36 -9.1 °C -12.1 °C 34567.7 hPa NNW 3.1 km/h 3.1 km/h 70 % 0 mm
05:41 -9.1 °C -12.1 °C 34567.7 hPa NW 6 km/h 6 km/h 70 % 0 mm
05:42 -9.1 °C -12.1 °C 34567.7 hPa West 3.7 km/h 3.7 km/h 70 % 0 mm
05:52 -9.3 °C -12.3 °C 34601.5 hPa NNE 6 km/h 6 km/h 70 % 0 mm
05:57 -9.3 °C -12.3 °C 34601.5 hPa North 3.1 km/h 3.1 km/h 70 % 0 mm
06:02 -9.3 °C -12.3 °C 34601.5 hPa NE 5.6 km/h 5.6 km/h 70 % 0 mm
06:07 -9.4 °C -12.4 °C 34601.5 hPa NNE 11.9 km/h 11.9 km/h 70 % 0 mm
06:12 -9.4 °C -12.6 °C 34601.5 hPa NNE 5.1 km/h   69 % 0 mm
06:17 -9.4 °C -12.6 °C 34601.5 hPa NE 7.6 km/h 7.6 km/h 69 % 0 mm
06:22 -9.4 °C -12.6 °C 34601.5 hPa NE 9 km/h 9 km/h 69 % 0 mm
06:27 -9.4 °C -12.6 °C 34601.5 hPa NNE 9.8 km/h 9.8 km/h 69 % 0 mm
06:32 -9.4 °C -12.6 °C 34601.5 hPa NNE 6 km/h 6 km/h 69 % 0 mm
06:37 -9.4 °C -12.6 °C 34601.5 hPa ENE 9 km/h 9 km/h 69 % 0 mm
06:42 -9.4 °C -12.7 °C 34601.5 hPa NE 15 km/h 15 km/h 68 % 0 mm
06:47 -9.4 °C -12.7 °C 34601.5 hPa NNW 9.3 km/h 9.3 km/h 68 % 0 mm
06:52 -9.4 °C -12.7 °C 34601.5 hPa ENE 9.3 km/h 9.3 km/h 68 % 0 mm
06:57 -9.4 °C -12.7 °C 34601.5 hPa East 9 km/h 9 km/h 68 % 0 mm
07:02 -9.4 °C -12.7 °C 34635.4 hPa NE 6 km/h 6 km/h 68 % 0 mm
07:12 -9.5 °C -12.9 °C 34635.4 hPa NE 9 km/h 9 km/h 67 % 0 mm
07:17 -9.5 °C -12.9 °C 34635.4 hPa NNW 11.9 km/h 11.9 km/h 67 % 0 mm
07:22 -9.5 °C -12.9 °C 34635.4 hPa NE 9 km/h 9 km/h 67 % 0 mm
07:32 -9.6 °C -12.9 °C 34635.4 hPa WNW 6 km/h 6 km/h 67 % 0 mm
07:37 -9.6 °C -12.9 °C 34635.4 hPa WNW 6 km/h 6 km/h 67 % 0 mm
07:42 -9.6 °C -13.1 °C 34635.4 hPa North 3.1 km/h   66 % 0 mm
07:47 -9.6 °C -13 °C 34635.4 hPa NNE 3.1 km/h   67 % 0 mm
07:52 -9.6 °C -13.1 °C 34635.4 hPa ENE 6 km/h 6 km/h 66 % 0 mm
07:57 -9.6 °C -13.1 °C 34635.4 hPa NE 6 km/h 6 km/h 66 % 0 mm
08:02 -9.6 °C -13.1 °C 34635.4 hPa NNE 6 km/h 6 km/h 66 % 0 mm
08:07 -9.6 °C -13.1 °C 34635.4 hPa NW 3.1 km/h 3.1 km/h 66 % 0 mm
08:12 -9.6 °C -13.1 °C 34635.4 hPa NNE 6.8 km/h 6.8 km/h 66 % 0 mm
08:17 -9.4 °C -12.9 °C 34669.3 hPa NE 8 km/h 8 km/h 66 % 0 mm
08:22 -9.5 °C -13 °C 34669.3 hPa NNE 11.9 km/h 11.9 km/h 66 % 0 mm
08:27 -9.5 °C -13 °C 34669.3 hPa ENE 3.1 km/h 3.1 km/h 66 % 0 mm
08:32 -9.6 °C -13.1 °C 34669.3 hPa ENE 11.1 km/h 11.1 km/h 66 % 0 mm
08:37 -9.6 °C -13.1 °C 34669.3 hPa NNE 9 km/h 9 km/h 66 % 0 mm
08:42 -9.6 °C -13.1 °C 34669.3 hPa NE 11.9 km/h 11.9 km/h 66 % 0 mm
08:47 -9.6 °C -13.1 °C 34669.3 hPa ENE 15 km/h 15 km/h 66 % 0 mm
08:52 -9.4 °C -12.9 °C 34669.3 hPa NNW 15 km/h 15 km/h 66 % 0 mm
08:57 -9.4 °C -13.1 °C 34669.3 hPa ENE 11.9 km/h 11.9 km/h 65 % 0 mm
09:02 -9.4 °C -13 °C 34669.3 hPa NE 11.9 km/h 11.9 km/h 65 % 0 mm
09:07 -9.3 °C -12.9 °C 34669.3 hPa NE 6.3 km/h 6.3 km/h 65 % 0 mm
09:08 -9.3 °C -12.9 °C 34669.3 hPa East 6.3 km/h 6.3 km/h 65 % 0 mm
09:13 -9.3 °C -12.9 °C 34669.3 hPa NNE 9 km/h 9 km/h 65 % 0 mm
09:18 -9.3 °C -12.9 °C 34669.3 hPa NE 9 km/h 9 km/h 65 % 0 mm
09:23 -9.3 °C -12.9 °C 34669.3 hPa North 11.9 km/h 11.9 km/h 65 % 0 mm
09:28 -9.3 °C -13.1 °C 34669.3 hPa NNE 15 km/h 15 km/h 64 % 0 mm
09:33 -9.3 °C -13.1 °C 34669.3 hPa NNE 6 km/h 7.6 km/h 64 % 0 mm
09:38 -9.4 °C -13.2 °C 34669.3 hPa NNW 17.9 km/h 17.9 km/h 64 % 0 mm
09:43 -9.4 °C -13.2 °C 34669.3 hPa NNE 15 km/h 15 km/h 64 % 0 mm
09:48 -9.4 °C -13.2 °C 34669.3 hPa ENE 20.9 km/h 20.9 km/h 64 % 0 mm
09:53 -9.3 °C -13.1 °C 34669.3 hPa NE 15.3 km/h 15.3 km/h 64 % 0 mm
09:58 -9.3 °C -13.1 °C 34669.3 hPa NNE 15 km/h 15 km/h 64 % 0 mm
10:03 -9.3 °C -13.2 °C 34669.3 hPa ENE 7.6 km/h 7.6 km/h 63 % 0 mm
10:08 -9.2 °C -13 °C 34669.3 hPa NE 20.9 km/h 20.9 km/h 64 % 0 mm
10:13 -9.2 °C -13.1 °C 34669.3 hPa ESE 11.9 km/h 11.9 km/h 63 % 0 mm
10:18 -9.1 °C -13 °C 34669.3 hPa NNE 15 km/h 15 km/h 63 % 0 mm
10:23 -9.1 °C -13 °C 34669.3 hPa NNW 9 km/h 9 km/h 63 % 0 mm
10:28 -8.9 °C -12.9 °C 34669.3 hPa NNW 9 km/h 9 km/h 63 % 0 mm
10:33 -9 °C -13 °C 34703.1 hPa ENE 11.9 km/h 11.9 km/h 62 % 0 mm
10:38 -8.9 °C -13 °C 34703.1 hPa NNW 11.9 km/h 11.9 km/h 62 % 0 mm
10:43 -8.8 °C -12.9 °C 34703.1 hPa East 9 km/h 9 km/h 62 % 0 mm
10:48 -8.8 °C -12.9 °C 34703.1 hPa NNE 20.9 km/h 20.9 km/h 61 % 0 mm
10:53 -8.6 °C -12.8 °C 34703.1 hPa NE 9 km/h 9 km/h 61 % 0 mm
10:58 -8.6 °C -12.8 °C 34703.1 hPa NNE 15 km/h 15 km/h 61 % 0 mm
11:03 -8.5 °C -12.7 °C 34669.3 hPa North 11.9 km/h 11.9 km/h 61 % 0 mm
11:08 -8.5 °C -12.7 °C 34669.3 hPa NNE 9 km/h 9 km/h 61 % 0 mm
11:13 -8.6 °C -12.9 °C 34669.3 hPa NNE 9 km/h 9 km/h 60 % 0 mm
11:23 -8.4 °C -12.8 °C 34669.3 hPa NNE 11.9 km/h 11.9 km/h 60 % 0 mm
11:28 -8.3 °C -12.8 °C 34669.3 hPa NNE 15 km/h 15 km/h 59 % 0 mm
11:38 -8.3 °C -12.9 °C 34669.3 hPa NNE 9.3 km/h 9.3 km/h 58 % 0 mm
11:43 -8.3 °C -12.9 °C 34669.3 hPa NNE 11.9 km/h 11.9 km/h 58 % 0 mm
11:48 -8.2 °C -12.9 °C 34703.1 hPa NE 11.9 km/h 11.9 km/h 58 % 0 mm
11:53 -7.9 °C -12.6 °C 34703.1 hPa ENE 11.9 km/h 11.9 km/h 58 % 0 mm
11:58 -7.7 °C -12.4 °C 34703.1 hPa NE 11.9 km/h 11.9 km/h 57 % 0 mm
12:03 -7.5 °C -12.4 °C 34703.1 hPa ENE 6 km/h 6 km/h 56 % 0 mm
12:08 -7.5 °C -12.4 °C 34703.1 hPa East 6 km/h 6 km/h 56 % 0 mm
12:13 -7.4 °C -12.4 °C 34703.1 hPa NNE 11.9 km/h 11.9 km/h 56 % 0 mm
12:18 -7.4 °C -12.6 °C 34703.1 hPa ESE 17.9 km/h 17.9 km/h 55 % 0 mm
12:23 -7.2 °C -12.4 °C 34703.1 hPa South 20.9 km/h 20.9 km/h 54 % 0 mm
12:28 -7 °C -12.4 °C 34703.1 hPa NE 11.9 km/h 11.9 km/h 53 % 0 mm
12:33 -6.9 °C -12.2 °C 34703.1 hPa WSW 6 km/h 6 km/h 54 % 0 mm
12:34 -6.9 °C -12.2 °C 34703.1 hPa WSW 6.3 km/h 6.3 km/h 54 % 0 mm
12:39 -6.9 °C -12.3 °C 34703.1 hPa ENE 6 km/h 6 km/h 54 % 0 mm
12:44 -6.6 °C -12.1 °C 34669.3 hPa East 9.3 km/h 9.3 km/h 53 % 0 mm
12:49 -6.6 °C -12.1 °C 34669.3 hPa NNW 11.9 km/h 11.9 km/h 53 % 0 mm
12:54 -6.7 °C -12.4 °C 34669.3 hPa WSW 11.9 km/h 11.9 km/h 52 % 0 mm
12:59 -6.7 °C -12.3 °C 34669.3 hPa North 11.9 km/h 11.9 km/h 52 % 0 mm
13:04 -6.6 °C -12.2 °C 34669.3 hPa ENE 11.9 km/h 11.9 km/h 52 % 0 mm
13:09 -6.6 °C -12.3 °C 34669.3 hPa ESE 9 km/h 9 km/h 52 % 0 mm
13:14 -6.6 °C -12.2 °C 34669.3 hPa ESE 11.1 km/h 11.1 km/h 52 % 0 mm
13:19 -6.4 °C -12.1 °C 34669.3 hPa ESE 17.9 km/h 17.9 km/h 52 % 0 mm
13:24 -6.1 °C -11.9 °C 34669.3 hPa ESE 9 km/h 9 km/h 51 % 0 mm
13:34 -6 °C -12.1 °C 34669.3 hPa SE 15 km/h 15 km/h 50 % 0 mm
13:39 -5.8 °C -11.7 °C 34669.3 hPa WSW 6.8 km/h 8 km/h 51 % 0 mm
13:44 -5.9 °C -12 °C 34669.3 hPa ESE 23.8 km/h 23.8 km/h 50 % 0 mm
13:49 -5.9 °C -11.9 °C 34669.3 hPa South 17.9 km/h 17.9 km/h 50 % 0 mm
13:54 -5.9 °C -11.9 °C 34669.3 hPa NNE 11.9 km/h 11.9 km/h 50 % 0 mm
13:59 -6.1 °C -12.1 °C 34669.3 hPa East 11.9 km/h 11.9 km/h 50 % 0 mm
14:04 -5.8 °C -11.9 °C 34669.3 hPa East 9 km/h 9 km/h 50 % 0 mm
14:09 -5.6 °C -11.7 °C 34669.3 hPa SSW 10.3 km/h 10.3 km/h 50 % 0 mm
14:14 -5.4 °C -11.4 °C 34669.3 hPa South 15 km/h 15 km/h 50 % 0 mm
14:19 -5.1 °C -11.3 °C 34669.3 hPa SSE 7.6 km/h 7.6 km/h 49 % 0 mm
14:24 -5.4 °C -11.7 °C 34669.3 hPa NE 9 km/h 9 km/h 49 % 0 mm
14:29 -5.2 °C -11.4 °C 34669.3 hPa East 12.7 km/h 12.7 km/h 49 % 0 mm
14:34 -5.3 °C -11.6 °C 34669.3 hPa South 9 km/h 9 km/h 49 % 0 mm
14:39 -5.1 °C -11.5 °C 34669.3 hPa ENE 23.8 km/h 23.8 km/h 48 % 0 mm
14:44 -5.3 °C -11.7 °C 34635.4 hPa SE 11.9 km/h 11.9 km/h 48 % 0 mm
14:49 -4.9 °C -11.3 °C 34635.4 hPa South 23.8 km/h 23.8 km/h 48 % 0 mm
14:54 -5 °C -11.6 °C 34635.4 hPa SW 9 km/h 9 km/h 47 % 0 mm
14:59 -4.8 °C -11.2 °C 34635.4 hPa WSW 11.9 km/h 11.9 km/h 48 % 0 mm
15:04 -4.8 °C -11.3 °C 34635.4 hPa NW 17.9 km/h 17.9 km/h 48 % 0 mm
15:09 -5 °C -11.4 °C 34635.4 hPa WSW 9 km/h 9 km/h 48 % 0 mm
15:14 -4.7 °C -11.2 °C 34635.4 hPa SW 17.9 km/h 17.9 km/h 48 % 0 mm
15:19 -4.6 °C -11.1 °C 34635.4 hPa South 8 km/h 8 km/h 48 % 0 mm
15:24 -4.7 °C -11.2 °C 34635.4 hPa SW 17.9 km/h 17.9 km/h 48 % 0 mm
15:29 -4.7 °C -11.2 °C 34635.4 hPa SW 19.2 km/h 19.2 km/h 48 % 0 mm
15:34 -4.8 °C -11.4 °C 34635.4 hPa West 11.9 km/h 11.9 km/h 47 % 0 mm
15:39 -4.7 °C -11.3 °C 34635.4 hPa South 6 km/h 6.3 km/h 47 % 0 mm
15:44 -4.6 °C -11.3 °C 34635.4 hPa SW 14.5 km/h 14.5 km/h 47 % 0 mm
15:49 -4.3 °C -10.9 °C 34635.4 hPa SSW 15 km/h 15 km/h 47 % 0 mm
15:54 -4.2 °C -10.9 °C 34635.4 hPa SW 9.3 km/h 9.3 km/h 47 % 0 mm
15:59 -4.1 °C -10.8 °C 34601.5 hPa WSW 11.9 km/h 11.9 km/h 47 % 0 mm
16:04 -4.4 °C -11.2 °C 34601.5 hPa SW 9 km/h 9 km/h 46 % 0 mm
16:09 -4.9 °C -11.7 °C 34601.5 hPa East 9 km/h 9 km/h 46 % 0 mm
16:14 -4.9 °C -11.7 °C 34635.4 hPa ENE 11.9 km/h 11.9 km/h 46 % 0 mm
16:19 -4.7 °C -11.3 °C 34635.4 hPa WSW 11.9 km/h 11.9 km/h 47 % 0 mm
16:20 -4.7 °C -11.3 °C 34635.4 hPa SSW 11.9 km/h 11.9 km/h 47 % 0 mm
16:25 -5.1 °C -11.8 °C 34635.4 hPa SE 20.9 km/h 20.9 km/h 46 % 0 mm
16:30 -5.1 °C -11.9 °C 34601.5 hPa NE 22 km/h 22 km/h 46 % 0 mm
16:35 -5.1 °C -12.1 °C 34601.5 hPa South 17.9 km/h 17.9 km/h 45 % 0 mm
16:40 -5 °C -12.2 °C 34601.5 hPa SSE 15 km/h 15 km/h 44 % 0 mm
16:45 -4.9 °C -11.9 °C 34601.5 hPa South 15.3 km/h 15.3 km/h 45 % 0 mm
16:50 -4.9 °C -12.1 °C 34601.5 hPa ENE 26.9 km/h 26.9 km/h 44 % 0 mm
16:55 -4.6 °C -11.4 °C 34601.5 hPa WSW 15 km/h 15 km/h 46 % 0 mm
17:00 -4.4 °C -11.3 °C 34635.4 hPa WSW 14 km/h 14 km/h 46 % 0 mm
17:05 -4.5 °C -11.3 °C 34635.4 hPa South 17.9 km/h 17.9 km/h 46 % 0 mm
17:10 -4.7 °C -11.6 °C 34635.4 hPa SW 26.9 km/h 26.9 km/h 46 % 0 mm
17:15 -4.8 °C -11.7 °C 34635.4 hPa SW 26.9 km/h 26.9 km/h 46 % 0 mm
17:20 -4.9 °C -11.7 °C 34635.4 hPa SSE 9 km/h 9 km/h 46 % 0 mm
17:25 -4.8 °C -11.7 °C 34635.4 hPa SW 20.9 km/h 20.9 km/h 46 % 0 mm
17:30 -4.8 °C -11.6 °C 34635.4 hPa SW 9.3 km/h 9.3 km/h 46 % 0 mm
17:35 -4.9 °C -11.7 °C 34635.4 hPa SW 17.9 km/h 17.9 km/h 46 % 0 mm
17:40 -5.1 °C -11.9 °C 34635.4 hPa South 20.9 km/h 20.9 km/h 46 % 0 mm
17:45 -5.1 °C -11.7 °C 34601.5 hPa SW 9 km/h 9 km/h 47 % 0 mm
17:50 -5.4 °C -12 °C 34601.5 hPa SW 11.9 km/h 11.9 km/h 47 % 0 mm
17:55 -5.6 °C -12.2 °C 34601.5 hPa WSW 11.9 km/h 11.9 km/h 47 % 0 mm
18:00 -5.8 °C -12.4 °C 34635.4 hPa South 23.8 km/h 23.8 km/h 47 % 0 mm
18:05 -6.1 °C -12.6 °C 34635.4 hPa SW 15 km/h 15 km/h 47 % 0 mm
18:10 -6.1 °C -12.6 °C 34635.4 hPa South 15 km/h 15 km/h 47 % 0 mm
18:15 -6.1 °C -12.4 °C 34635.4 hPa SSW 6.8 km/h 6.8 km/h 48 % 0 mm
18:20 -6.2 °C -12.4 °C 34635.4 hPa SW 14.5 km/h 14.5 km/h 49 % 0 mm
18:25 -6.2 °C -12.4 °C 34635.4 hPa West 11.9 km/h 11.9 km/h 49 % 0 mm
18:30 -6.2 °C -12.3 °C 34635.4 hPa SSW 15 km/h 15 km/h 49 % 0 mm
18:31 -6.2 °C -12.3 °C 34635.4 hPa WSW 17.9 km/h 17.9 km/h 49 % 0 mm
18:36 -6.3 °C -12.5 °C 34635.4 hPa SSW 11.9 km/h 11.9 km/h 49 % 0 mm
18:41 -6.4 °C -12.4 °C 34635.4 hPa SW 20.9 km/h 20.9 km/h 50 % 0 mm
18:46 -6.4 °C -12.4 °C 34635.4 hPa WSW 20.9 km/h 20.9 km/h 50 % 0 mm
18:51 -6.6 °C -12.6 °C 34635.4 hPa SW 9 km/h 9 km/h 50 % 0 mm
18:56 -6.6 °C -12.6 °C 34635.4 hPa South 20.9 km/h 20.9 km/h 50 % 0 mm
19:01 -6.7 °C -12.4 °C 34635.4 hPa SW 9 km/h 9 km/h 51 % 0 mm
19:06 -6.8 °C -12.6 °C 34635.4 hPa SSW 14.5 km/h 14.5 km/h 51 % 0 mm
19:11 -6.9 °C -12.7 °C 34635.4 hPa SW 11.1 km/h 11.1 km/h 51 % 0 mm
19:16 -7 °C -12.8 °C 34635.4 hPa SW 9 km/h 9 km/h 51 % 0 mm
19:21 -7.1 °C -12.7 °C 34635.4 hPa SW 10.3 km/h 10.3 km/h 52 % 0 mm
19:22 -7.1 °C -12.7 °C 34635.4 hPa WSW 11.9 km/h 11.9 km/h 52 % 0 mm
19:27 -7.2 °C -12.8 °C 34635.4 hPa SW 11.9 km/h 11.9 km/h 52 % 0 mm
19:32 -7.3 °C -12.8 °C 34635.4 hPa SW 14.5 km/h 14.5 km/h 53 % 0 mm
19:37 -7.4 °C -12.9 °C 34635.4 hPa SW 9 km/h 9 km/h 53 % 0 mm
19:42 -7.5 °C -12.8 °C 34635.4 hPa SW 11.9 km/h 11.9 km/h 54 % 0 mm
19:47 -7.6 °C -12.8 °C 34635.4 hPa SW 6 km/h 6 km/h 54 % 0 mm
19:52 -7.6 °C -12.9 °C 34635.4 hPa SW 6.3 km/h 6.3 km/h 54 % 0 mm
19:57 -7.7 °C -12.8 °C 34635.4 hPa SW 6 km/h 6 km/h 55 % 0 mm
20:02 -7.8 °C -12.9 °C 34635.4 hPa SW 6.3 km/h 6.3 km/h 55 % 0 mm
20:07 -7.9 °C -13 °C 34635.4 hPa WSW 11.9 km/h 11.9 km/h 55 % 0 mm
20:12 -7.9 °C -12.9 °C 34635.4 hPa West 6.8 km/h 6.8 km/h 56 % 0 mm
20:17 -7.9 °C -12.9 °C 34669.3 hPa SSW 6.3 km/h 6.3 km/h 56 % 0 mm
20:22 -8 °C -12.9 °C 34669.3 hPa WSW 6 km/h 6 km/h 56 % 0 mm
20:27 -8.1 °C -12.8 °C 34669.3 hPa WSW 11.9 km/h 11.9 km/h 57 % 0 mm
20:32 -8.1 °C -12.8 °C 34635.4 hPa WSW 6 km/h 6 km/h 57 % 0 mm
20:37 -8.1 °C -12.7 °C 34635.4 hPa Calm     58 % 0 mm
20:42 -8.2 °C -12.8 °C 34635.4 hPa SW 6 km/h 6 km/h 58 % 0 mm
20:47 -8.2 °C -12.9 °C 34669.3 hPa WSW 6 km/h 6 km/h 58 % 0 mm
20:52 -8.2 °C -12.9 °C 34669.3 hPa SW 6 km/h 6 km/h 58 % 0 mm
20:57 -8.3 °C -12.8 °C 34669.3 hPa SW 6 km/h 6 km/h 59 % 0 mm
21:02 -8.3 °C -12.8 °C 34669.3 hPa SW 5.1 km/h 5.1 km/h 59 % 0 mm
21:07 -8.3 °C -12.8 °C 34669.3 hPa SW 4.2 km/h 4.2 km/h 59 % 0 mm
21:12 -8.3 °C -12.8 °C 34669.3 hPa SW 6 km/h 6 km/h 59 % 0 mm
21:17 -8.4 °C -12.6 °C 34635.4 hPa Calm     61 % 0 mm
21:22 -8.4 °C -12.7 °C 34635.4 hPa WSW 3.1 km/h 3.1 km/h 61 % 0 mm
21:27 -8.4 °C -12.7 °C 34635.4 hPa Calm     61 % 0 mm
21:32 -8.5 °C -12.7 °C 34669.3 hPa Calm     61 % 0 mm
21:37 -8.6 °C -12.6 °C 34669.3 hPa Calm     62 % 0 mm
21:42 -8.6 °C -12.7 °C 34669.3 hPa Calm     62 % 0 mm
21:47 -8.7 °C -12.7 °C 34635.4 hPa Calm     62 % 0 mm
21:52 -8.7 °C -12.7 °C 34635.4 hPa Calm     62 % 0 mm
21:57 -8.7 °C -12.7 °C 34635.4 hPa Calm     63 % 0 mm
22:02 -8.7 °C -12.7 °C 34635.4 hPa Calm     63 % 0 mm
22:07 -8.7 °C -12.7 °C 34635.4 hPa West 6 km/h 6 km/h 63 % 0 mm
22:12 -8.7 °C -12.6 °C 34635.4 hPa West 3.7 km/h 3.7 km/h 63 % 0 mm
22:17 -8.7 °C -12.5 °C 34635.4 hPa Calm     64 % 0 mm
22:27 -8.8 °C -12.6 °C 34635.4 hPa Calm     64 % 0 mm
22:32 -8.8 °C -12.6 °C 34669.3 hPa West 3.1 km/h   64 % 0 mm
22:37 -8.9 °C -12.7 °C 34669.3 hPa Calm     64 % 0 mm
22:42 -9 °C -12.8 °C 34669.3 hPa West 3.7 km/h   64 % 0 mm
22:47 -9.1 °C -12.7 °C 34635.4 hPa Calm     65 % 0 mm
22:52 -9.1 °C -12.7 °C 34635.4 hPa Calm     65 % 0 mm
22:57 -9.2 °C -12.8 °C 34635.4 hPa Calm     65 % 0 mm
23:02 -9.2 °C -12.7 °C 34635.4 hPa Calm     66 % 0 mm
23:07 -9.3 °C -12.8 °C 34635.4 hPa Calm     66 % 0 mm
23:12 -9.3 °C -12.8 °C 34635.4 hPa Calm     66 % 0 mm
23:17 -9.3 °C -12.8 °C 34635.4 hPa Calm     66 % 0 mm
23:22 -9.4 °C -12.8 °C 34635.4 hPa Calm     67 % 0 mm
23:27 -9.4 °C -12.8 °C 34635.4 hPa Calm     67 % 0 mm
23:32 -9.4 °C -12.7 °C 34635.4 hPa Calm     68 % 0 mm
23:37 -9.4 °C -12.7 °C 34635.4 hPa Calm     68 % 0 mm
23:42 -9.5 °C -12.7 °C 34635.4 hPa Calm     68 % 0 mm
23:47 -9.5 °C -12.7 °C 34635.4 hPa West 2.3 km/h   68 % 0 mm
23:52 -9.5 °C -12.7 °C 34635.4 hPa Calm     68 % 0 mm
23:57 -9.6 °C -12.7 °C 34635.4 hPa Calm     69 % 0 mm
Meteo Sesrovires
Elogis d' Weather Underground - 4 mb

Guio original per  Jim McMurry - jmcmurry@mwt.net Adaptat per a la plantilla per  Wim van der Kuil - Leuven-Template.eu

Trobareu la nostra informacio del temps tambe a:

Weather Underground

AWEKAS